sensor_id;sensor_type;location;lat;lon;timestamp;pressure;altitude;pressure_sealevel;temperature;humidity
71697;BME280;68167;59.120;37.898;2023-04-24T00:00:38;99561.91;;;8.99;51.16
71697;BME280;68167;59.120;37.898;2023-04-24T00:03:07;99604.09;;;9.27;51.34
71697;BME280;68167;59.120;37.898;2023-04-24T00:05:34;99604.41;;;9.31;51.70
71697;BME280;68167;59.120;37.898;2023-04-24T00:08:00;99558.16;;;8.95;51.31
71697;BME280;68167;59.120;37.898;2023-04-24T00:10:26;99600.03;;;9.19;51.30
71697;BME280;68167;59.120;37.898;2023-04-24T00:12:53;99601.66;;;9.20;51.67
71697;BME280;68167;59.120;37.898;2023-04-24T00:15:19;99584.31;;;9.08;51.64
71697;BME280;68167;59.120;37.898;2023-04-24T00:17:45;99569.53;;;8.90;52.13
71697;BME280;68167;59.120;37.898;2023-04-24T00:20:12;99549.50;;;8.77;51.74
71697;BME280;68167;59.120;37.898;2023-04-24T00:22:39;99572.44;;;8.88;52.32
71697;BME280;68167;59.120;37.898;2023-04-24T00:25:06;99572.44;;;8.88;51.94
71697;BME280;68167;59.120;37.898;2023-04-24T00:27:32;99574.34;;;8.93;51.51
71697;BME280;68167;59.120;37.898;2023-04-24T00:29:59;99602.91;;;9.13;52.14
71697;BME280;68167;59.120;37.898;2023-04-24T00:32:25;99541.97;;;8.69;52.48
71697;BME280;68167;59.120;37.898;2023-04-24T00:34:52;99593.31;;;9.07;51.61
71697;BME280;68167;59.120;37.898;2023-04-24T00:37:18;99568.44;;;8.86;52.26
71697;BME280;68167;59.120;37.898;2023-04-24T00:39:45;99507.53;;;8.47;52.31
71697;BME280;68167;59.120;37.898;2023-04-24T00:42:11;99599.94;;;9.04;52.46
71697;BME280;68167;59.120;37.898;2023-04-24T00:44:38;99605.50;;;9.03;52.64
71697;BME280;68167;59.120;37.898;2023-04-24T00:47:05;99598.31;;;9.03;52.96
71697;BME280;68167;59.120;37.898;2023-04-24T00:49:32;99562.50;;;8.79;52.64
71697;BME280;68167;59.120;37.898;2023-04-24T00:51:58;99541.44;;;8.67;53.09
71697;BME280;68167;59.120;37.898;2023-04-24T00:54:25;99592.13;;;8.93;52.69
71697;BME280;68167;59.120;37.898;2023-04-24T00:56:52;99591.00;;;8.88;52.98
71697;BME280;68167;59.120;37.898;2023-04-24T00:59:19;99594.72;;;8.87;52.95
71697;BME280;68167;59.120;37.898;2023-04-24T01:01:46;99598.22;;;8.93;53.08
71697;BME280;68167;59.120;37.898;2023-04-24T01:04:14;99599.03;;;8.94;52.97
71697;BME280;68167;59.120;37.898;2023-04-24T01:06:41;99573.56;;;8.71;52.48
71697;BME280;68167;59.120;37.898;2023-04-24T01:09:10;99600.81;;;8.88;52.86
71697;BME280;68167;59.120;37.898;2023-04-24T01:11:37;99504.88;;;8.25;53.50
71697;BME280;68167;59.120;37.898;2023-04-24T01:14:06;99601.31;;;8.85;53.14
71697;BME280;68167;59.120;37.898;2023-04-24T01:16:32;99580.19;;;8.68;53.52
71697;BME280;68167;59.120;37.898;2023-04-24T01:19:01;99582.34;;;8.71;52.85
71697;BME280;68167;59.120;37.898;2023-04-24T01:21:30;99552.91;;;8.51;53.59
71697;BME280;68167;59.120;37.898;2023-04-24T01:23:59;99569.19;;;8.59;53.74
71697;BME280;68167;59.120;37.898;2023-04-24T01:26:25;99603.66;;;8.81;53.46
71697;BME280;68167;59.120;37.898;2023-04-24T01:28:52;99588.69;;;8.70;53.31
71697;BME280;68167;59.120;37.898;2023-04-24T01:31:20;99585.47;;;8.68;54.08
71697;BME280;68167;59.120;37.898;2023-04-24T01:33:47;99569.94;;;8.55;54.19
71697;BME280;68167;59.120;37.898;2023-04-24T01:36:14;99592.41;;;8.69;53.75
71697;BME280;68167;59.120;37.898;2023-04-24T01:38:42;99544.31;;;8.39;53.97
71697;BME280;68167;59.120;37.898;2023-04-24T01:41:09;99596.41;;;8.72;53.52
71697;BME280;68167;59.120;37.898;2023-04-24T01:43:36;99593.13;;;8.65;53.70
71697;BME280;68167;59.120;37.898;2023-04-24T01:46:03;99566.41;;;8.44;53.73
71697;BME280;68167;59.120;37.898;2023-04-24T01:48:30;99582.84;;;8.46;54.18
71697;BME280;68167;59.120;37.898;2023-04-24T01:50:57;99588.69;;;8.48;54.41
71697;BME280;68167;59.120;37.898;2023-04-24T01:53:23;99614.50;;;8.53;53.87
71697;BME280;68167;59.120;37.898;2023-04-24T01:55:50;99611.28;;;8.51;54.78
71697;BME280;68167;59.120;37.898;2023-04-24T01:58:16;99572.78;;;8.26;54.37
71697;BME280;68167;59.120;37.898;2023-04-24T02:00:43;99599.31;;;8.48;54.58
71697;BME280;68167;59.120;37.898;2023-04-24T02:03:10;99546.88;;;8.12;54.74
71697;BME280;68167;59.120;37.898;2023-04-24T02:05:36;99563.03;;;8.32;54.53
71697;BME280;68167;59.120;37.898;2023-04-24T02:08:03;99509.34;;;7.98;54.42
71697;BME280;68167;59.120;37.898;2023-04-24T02:10:30;99608.94;;;8.54;54.55
71697;BME280;68167;59.120;37.898;2023-04-24T02:12:59;99552.06;;;8.23;54.37
71697;BME280;68167;59.120;37.898;2023-04-24T02:15:27;99595.84;;;8.48;55.08
71697;BME280;68167;59.120;37.898;2023-04-24T02:17:53;99587.88;;;8.43;54.66
71697;BME280;68167;59.120;37.898;2023-04-24T02:20:20;99592.94;;;8.44;54.60
71697;BME280;68167;59.120;37.898;2023-04-24T02:22:47;99594.72;;;8.39;54.79
71697;BME280;68167;59.120;37.898;2023-04-24T02:25:13;99611.28;;;8.51;55.07
71697;BME280;68167;59.120;37.898;2023-04-24T02:27:41;99579.59;;;8.39;54.83
71697;BME280;68167;59.120;37.898;2023-04-24T02:30:08;99619.44;;;8.66;55.09
71697;BME280;68167;59.120;37.898;2023-04-24T02:32:34;99556.63;;;8.28;55.13
71697;BME280;68167;59.120;37.898;2023-04-24T02:35:01;99558.31;;;8.34;55.26
71697;BME280;68167;59.120;37.898;2023-04-24T02:37:30;99612.81;;;8.69;54.94
71697;BME280;68167;59.120;37.898;2023-04-24T02:39:58;99608.56;;;8.68;54.94
71697;BME280;68167;59.120;37.898;2023-04-24T02:42:24;99617.19;;;8.80;54.43
71697;BME280;68167;59.120;37.898;2023-04-24T02:44:51;99614.34;;;8.86;54.63
71697;BME280;68167;59.120;37.898;2023-04-24T02:47:17;99625.81;;;8.92;54.25
71697;BME280;68167;59.120;37.898;2023-04-24T02:49:44;99530.81;;;8.40;54.63
71697;BME280;68167;59.120;37.898;2023-04-24T02:52:11;99606.69;;;8.90;54.61
71697;BME280;68167;59.120;37.898;2023-04-24T02:54:37;99622.28;;;9.08;54.00
71697;BME280;68167;59.120;37.898;2023-04-24T02:57:03;99629.56;;;9.23;54.95
71697;BME280;68167;59.120;37.898;2023-04-24T02:59:30;99627.75;;;9.29;53.67
71697;BME280;68167;59.120;37.898;2023-04-24T03:01:57;99625.69;;;9.36;53.87
71697;BME280;68167;59.120;37.898;2023-04-24T03:04:23;99571.03;;;9.08;53.85
71697;BME280;68167;59.120;37.898;2023-04-24T03:06:49;99626.88;;;9.50;54.10
71697;BME280;68167;59.120;37.898;2023-04-24T03:09:21;99611.69;;;9.45;54.02
71697;BME280;68167;59.120;37.898;2023-04-24T03:11:48;99628.78;;;9.54;53.70
71697;BME280;68167;59.120;37.898;2023-04-24T03:14:16;99626.47;;;9.63;53.59
71697;BME280;68167;59.120;37.898;2023-04-24T03:16:42;99576.25;;;9.30;54.07
71697;BME280;68167;59.120;37.898;2023-04-24T03:19:09;99640.34;;;9.70;54.03
71697;BME280;68167;59.120;37.898;2023-04-24T03:21:43;99635.28;;;9.69;53.24
71697;BME280;68167;59.120;37.898;2023-04-24T03:24:10;99626.78;;;9.72;53.51
71697;BME280;68167;59.120;37.898;2023-04-24T03:26:37;99624.66;;;9.69;52.93
71697;BME280;68167;59.120;37.898;2023-04-24T03:29:19;99628.16;;;9.79;53.23
71697;BME280;68167;59.120;37.898;2023-04-24T03:31:46;99579.06;;;9.50;53.24
71697;BME280;68167;59.120;37.898;2023-04-24T03:34:13;99622.28;;;9.77;53.24
71697;BME280;68167;59.120;37.898;2023-04-24T03:36:40;99633.25;;;9.86;52.99
71697;BME280;68167;59.120;37.898;2023-04-24T03:39:07;99625.25;;;9.81;52.66
71697;BME280;68167;59.120;37.898;2023-04-24T03:41:36;99621.78;;;9.80;52.65
71697;BME280;68167;59.120;37.898;2023-04-24T03:44:20;99591.88;;;9.58;53.00
71697;BME280;68167;59.120;37.898;2023-04-24T03:46:47;99633.28;;;9.91;52.96
71697;BME280;68167;59.120;37.898;2023-04-24T03:49:13;99592.22;;;9.67;53.08
71697;BME280;68167;59.120;37.898;2023-04-24T03:51:43;99633.59;;;9.95;52.99
71697;BME280;68167;59.120;37.898;2023-04-24T03:54:17;99624.50;;;9.90;52.08
71697;BME280;68167;59.120;37.898;2023-04-24T03:56:45;99632.00;;;9.99;52.88
71697;BME280;68167;59.120;37.898;2023-04-24T03:59:13;99594.66;;;9.78;52.68
71697;BME280;68167;59.120;37.898;2023-04-24T04:01:41;99638.50;;;10.13;52.86
71697;BME280;68167;59.120;37.898;2023-04-24T04:04:13;99631.59;;;10.17;52.55
71697;BME280;68167;59.120;37.898;2023-04-24T04:06:41;99630.63;;;10.28;52.08
71697;BME280;68167;59.120;37.898;2023-04-24T04:09:08;99629.63;;;10.39;52.69
71697;BME280;68167;59.120;37.898;2023-04-24T04:11:36;99646.72;;;10.59;52.07
71697;BME280;68167;59.120;37.898;2023-04-24T04:14:03;99595.84;;;10.40;51.79
71697;BME280;68167;59.120;37.898;2023-04-24T04:16:31;99560.91;;;10.26;51.63
71697;BME280;68167;59.120;37.898;2023-04-24T04:19:03;99624.44;;;10.80;51.40
71697;BME280;68167;59.120;37.898;2023-04-24T04:21:30;99587.66;;;10.67;51.04
71697;BME280;68167;59.120;37.898;2023-04-24T04:24:08;99614.88;;;10.89;50.77
71697;BME280;68167;59.120;37.898;2023-04-24T04:26:43;99641.84;;;11.23;50.46
71697;BME280;68167;59.120;37.898;2023-04-24T04:29:18;99633.56;;;11.19;50.99
71697;BME280;68167;59.120;37.898;2023-04-24T04:31:45;99636.00;;;11.36;50.41
71697;BME280;68167;59.120;37.898;2023-04-24T04:34:13;99592.53;;;11.15;50.03
71697;BME280;68167;59.120;37.898;2023-04-24T04:36:41;99643.47;;;11.54;49.70
71697;BME280;68167;59.120;37.898;2023-04-24T04:39:48;99653.03;;;11.76;49.49
71697;BME280;68167;59.120;37.898;2023-04-24T04:42:21;99623.75;;;11.66;49.59
71697;BME280;68167;59.120;37.898;2023-04-24T04:44:49;99642.94;;;11.93;49.02
71697;BME280;68167;59.120;37.898;2023-04-24T04:47:21;99638.66;;;12.02;49.01
71697;BME280;68167;59.120;37.898;2023-04-24T04:49:51;99659.97;;;12.23;49.03
71697;BME280;68167;59.120;37.898;2023-04-24T04:52:24;99642.88;;;12.24;48.43
71697;BME280;68167;59.120;37.898;2023-04-24T04:54:59;99631.94;;;12.25;48.16
71697;BME280;68167;59.120;37.898;2023-04-24T04:57:40;99648.41;;;12.47;48.27
71697;BME280;68167;59.120;37.898;2023-04-24T05:00:07;99614.31;;;12.34;47.71
71697;BME280;68167;59.120;37.898;2023-04-24T05:02:44;99623.31;;;12.43;47.73
71697;BME280;68167;59.120;37.898;2023-04-24T05:05:10;99656.88;;;12.70;47.65
71697;BME280;68167;59.120;37.898;2023-04-24T05:07:37;99639.78;;;12.66;47.34
71697;BME280;68167;59.120;37.898;2023-04-24T05:10:04;99652.84;;;12.77;47.01
71697;BME280;68167;59.120;37.898;2023-04-24T05:12:31;99661.84;;;12.92;46.99
71697;BME280;68167;59.120;37.898;2023-04-24T05:14:58;99656.50;;;12.97;46.87
71697;BME280;68167;59.120;37.898;2023-04-24T05:17:25;99668.69;;;13.08;46.45
71697;BME280;68167;59.120;37.898;2023-04-24T05:19:54;99622.59;;;12.87;46.46
71697;BME280;68167;59.120;37.898;2023-04-24T05:22:20;99610.03;;;12.88;46.62
71697;BME280;68167;59.120;37.898;2023-04-24T05:24:50;99643.25;;;13.15;46.66
71697;BME280;68167;59.120;37.898;2023-04-24T05:27:40;99661.66;;;13.27;45.87
71697;BME280;68167;59.120;37.898;2023-04-24T05:30:13;99612.06;;;13.06;45.86
71697;BME280;68167;59.120;37.898;2023-04-24T05:32:39;99661.09;;;13.35;45.93
71697;BME280;68167;59.120;37.898;2023-04-24T05:35:06;99632.84;;;13.14;45.74
71697;BME280;68167;59.120;37.898;2023-04-24T05:37:32;99625.91;;;13.13;45.75
71697;BME280;68167;59.120;37.898;2023-04-24T05:39:59;99622.69;;;13.21;45.84
71697;BME280;68167;59.120;37.898;2023-04-24T05:42:26;99666.31;;;13.50;45.67
71697;BME280;68167;59.120;37.898;2023-04-24T05:44:53;99602.38;;;13.15;45.52
71697;BME280;68167;59.120;37.898;2023-04-24T05:47:20;99659.88;;;13.57;45.42
71697;BME280;68167;59.120;37.898;2023-04-24T05:49:48;99671.53;;;13.66;45.35
71697;BME280;68167;59.120;37.898;2023-04-24T05:52:15;99615.59;;;13.40;44.98
71697;BME280;68167;59.120;37.898;2023-04-24T05:54:42;99664.50;;;13.75;45.13
71697;BME280;68167;59.120;37.898;2023-04-24T05:57:10;99665.50;;;13.84;45.23
71697;BME280;68167;59.120;37.898;2023-04-24T05:59:51;99669.69;;;13.95;44.55
71697;BME280;68167;59.120;37.898;2023-04-24T06:02:20;99666.47;;;13.98;45.08
71697;BME280;68167;59.120;37.898;2023-04-24T06:04:46;99643.25;;;13.89;44.89
71697;BME280;68167;59.120;37.898;2023-04-24T06:07:13;99612.31;;;13.77;44.98
71697;BME280;68167;59.120;37.898;2023-04-24T06:09:41;99670.06;;;14.12;44.49
71697;BME280;68167;59.120;37.898;2023-04-24T06:12:08;99674.59;;;14.17;44.36
71697;BME280;68167;59.120;37.898;2023-04-24T06:14:49;99650.81;;;14.10;44.70
71697;BME280;68167;59.120;37.898;2023-04-24T06:17:23;99662.41;;;14.30;44.38
71697;BME280;68167;59.120;37.898;2023-04-24T06:19:50;99661.53;;;14.34;44.12
71697;BME280;68167;59.120;37.898;2023-04-24T06:22:17;99625.81;;;14.20;43.91
71697;BME280;68167;59.120;37.898;2023-04-24T06:24:43;99679.81;;;14.56;43.90
71697;BME280;68167;59.120;37.898;2023-04-24T06:27:10;99647.78;;;14.46;44.25
71697;BME280;68167;59.120;37.898;2023-04-24T06:29:37;99672.78;;;14.60;43.91
71697;BME280;68167;59.120;37.898;2023-04-24T06:32:03;99650.13;;;14.53;44.01
71697;BME280;68167;59.120;37.898;2023-04-24T06:34:29;99591.75;;;14.26;44.02
71697;BME280;68167;59.120;37.898;2023-04-24T06:36:56;99672.22;;;14.87;43.52
71697;BME280;68167;59.120;37.898;2023-04-24T06:39:23;99661.78;;;14.86;43.23
71697;BME280;68167;59.120;37.898;2023-04-24T06:41:49;99669.59;;;15.01;43.19
71697;BME280;68167;59.120;37.898;2023-04-24T06:44:19;99660.97;;;15.04;43.66
71697;BME280;68167;59.120;37.898;2023-04-24T06:46:46;99676.50;;;15.26;43.26
71697;BME280;68167;59.120;37.898;2023-04-24T06:49:13;99661.00;;;15.23;42.38
71697;BME280;68167;59.120;37.898;2023-04-24T06:51:42;99647.94;;;15.16;42.66
71697;BME280;68167;59.120;37.898;2023-04-24T06:54:09;99656.06;;;15.30;42.72
71697;BME280;68167;59.120;37.898;2023-04-24T06:56:35;99621.56;;;15.23;42.36
71697;BME280;68167;59.120;37.898;2023-04-24T06:59:02;99671.63;;;15.65;42.45
71697;BME280;68167;59.120;37.898;2023-04-24T07:01:28;99675.44;;;15.78;42.73
71697;BME280;68167;59.120;37.898;2023-04-24T07:03:55;99667.31;;;15.83;42.26
71697;BME280;68167;59.120;37.898;2023-04-24T07:06:22;99675.63;;;16.00;41.94
71697;BME280;68167;59.120;37.898;2023-04-24T07:08:50;99680.81;;;16.10;41.51
71697;BME280;68167;59.120;37.898;2023-04-24T07:11:17;99680.22;;;16.13;41.33
71697;BME280;68167;59.120;37.898;2023-04-24T07:13:44;99664.09;;;16.13;41.65
71697;BME280;68167;59.120;37.898;2023-04-24T07:16:10;99641.63;;;16.09;41.34
71697;BME280;68167;59.120;37.898;2023-04-24T07:18:38;99680.75;;;16.43;41.00
71697;BME280;68167;59.120;37.898;2023-04-24T07:21:05;99632.00;;;16.22;40.74
71697;BME280;68167;59.120;37.898;2023-04-24T07:23:33;99641.44;;;16.33;40.97
71697;BME280;68167;59.120;37.898;2023-04-24T07:26:00;99644.41;;;16.45;40.71
71697;BME280;68167;59.120;37.898;2023-04-24T07:28:26;99682.78;;;16.78;40.00
71697;BME280;68167;59.120;37.898;2023-04-24T07:30:57;99686.94;;;16.85;39.96
71697;BME280;68167;59.120;37.898;2023-04-24T07:33:25;99612.16;;;16.45;39.45
71697;BME280;68167;59.120;37.898;2023-04-24T07:35:52;99606.41;;;16.52;39.91
71697;BME280;68167;59.120;37.898;2023-04-24T07:38:18;99679.50;;;17.18;39.30
71697;BME280;68167;59.120;37.898;2023-04-24T07:40:48;99673.22;;;17.22;39.32
71697;BME280;68167;59.120;37.898;2023-04-24T07:43:15;99677.16;;;17.38;38.57
71697;BME280;68167;59.120;37.898;2023-04-24T07:45:41;99666.78;;;17.45;38.46
71697;BME280;68167;59.120;37.898;2023-04-24T07:48:08;99644.06;;;17.38;38.50
71697;BME280;68167;59.120;37.898;2023-04-24T07:50:35;99663.88;;;17.64;38.67
71697;BME280;68167;59.120;37.898;2023-04-24T07:53:02;99661.88;;;17.70;38.27
71697;BME280;68167;59.120;37.898;2023-04-24T07:55:29;99642.84;;;17.66;38.04
71697;BME280;68167;59.120;37.898;2023-04-24T07:57:56;99643.66;;;17.67;37.82
71697;BME280;68167;59.120;37.898;2023-04-24T08:00:22;99633.38;;;17.69;37.72
71697;BME280;68167;59.120;37.898;2023-04-24T08:02:49;99673.25;;;17.89;37.24
71697;BME280;68167;59.120;37.898;2023-04-24T08:05:16;99687.94;;;18.05;37.38
71697;BME280;68167;59.120;37.898;2023-04-24T08:07:42;99635.81;;;17.79;37.18
71697;BME280;68167;59.120;37.898;2023-04-24T08:10:10;99675.09;;;18.02;37.28
71697;BME280;68167;59.120;37.898;2023-04-24T08:12:37;99678.94;;;18.10;37.06
71697;BME280;68167;59.120;37.898;2023-04-24T08:15:05;99637.78;;;17.87;37.05
71697;BME280;68167;59.120;37.898;2023-04-24T08:17:33;99661.31;;;18.04;37.06
71697;BME280;68167;59.120;37.898;2023-04-24T08:19:59;99680.09;;;18.18;36.77
71697;BME280;68167;59.120;37.898;2023-04-24T08:22:32;99628.59;;;17.88;36.50
71697;BME280;68167;59.120;37.898;2023-04-24T08:25:00;99676.00;;;18.29;36.41
71697;BME280;68167;59.120;37.898;2023-04-24T08:27:26;99605.81;;;17.94;36.05
71697;BME280;68167;59.120;37.898;2023-04-24T08:29:54;99641.94;;;18.33;35.82
71697;BME280;68167;59.120;37.898;2023-04-24T08:32:20;99671.47;;;18.47;35.66
71697;BME280;68167;59.120;37.898;2023-04-24T08:34:47;99665.78;;;18.48;35.72
71697;BME280;68167;59.120;37.898;2023-04-24T08:37:14;99667.41;;;18.58;35.22
71697;BME280;68167;59.120;37.898;2023-04-24T08:39:40;99652.16;;;18.53;35.19
71697;BME280;68167;59.120;37.898;2023-04-24T08:42:07;99606.09;;;18.32;35.34
71697;BME280;68167;59.120;37.898;2023-04-24T08:44:35;99634.44;;;18.61;35.25
71697;BME280;68167;59.120;37.898;2023-04-24T08:47:02;99654.47;;;18.77;34.87
71697;BME280;68167;59.120;37.898;2023-04-24T08:49:29;99618.44;;;18.64;34.54
71697;BME280;68167;59.120;37.898;2023-04-24T08:51:56;99638.63;;;18.75;34.25
71697;BME280;68167;59.120;37.898;2023-04-24T08:54:23;99597.94;;;18.55;34.37
71697;BME280;68167;59.120;37.898;2023-04-24T08:56:53;99602.91;;;18.70;34.26
71697;BME280;68167;59.120;37.898;2023-04-24T08:59:24;99591.19;;;18.74;33.90
71697;BME280;68167;59.120;37.898;2023-04-24T09:01:51;99606.88;;;18.98;33.47
71697;BME280;68167;59.120;37.898;2023-04-24T09:04:20;99620.88;;;19.18;33.05
71697;BME280;68167;59.120;37.898;2023-04-24T09:06:48;99628.97;;;19.26;32.64
71697;BME280;68167;59.120;37.898;2023-04-24T09:09:17;99626.28;;;19.35;32.17
71697;BME280;68167;59.120;37.898;2023-04-24T09:11:46;99626.25;;;19.52;32.47
71697;BME280;68167;59.120;37.898;2023-04-24T09:14:14;99619.41;;;19.63;32.25
71697;BME280;68167;59.120;37.898;2023-04-24T09:16:41;99574.31;;;19.55;31.94
71697;BME280;68167;59.120;37.898;2023-04-24T09:19:08;99622.66;;;20.03;31.03
71697;BME280;68167;59.120;37.898;2023-04-24T09:21:35;99584.69;;;20.00;30.32
71697;BME280;68167;59.120;37.898;2023-04-24T09:24:04;99577.50;;;20.04;30.17
71697;BME280;68167;59.120;37.898;2023-04-24T09:26:34;99576.56;;;20.29;28.98
71697;BME280;68167;59.120;37.898;2023-04-24T09:29:03;99613.97;;;20.65;28.07
71697;BME280;68167;59.120;37.898;2023-04-24T09:31:30;99620.44;;;20.73;28.37
71697;BME280;68167;59.120;37.898;2023-04-24T09:33:59;99609.09;;;20.80;27.55
71697;BME280;68167;59.120;37.898;2023-04-24T09:36:34;99576.47;;;20.55;27.61
71697;BME280;68167;59.120;37.898;2023-04-24T09:39:01;99582.41;;;20.69;27.67
71697;BME280;68167;59.120;37.898;2023-04-24T09:41:28;99600.38;;;20.95;27.36
71697;BME280;68167;59.120;37.898;2023-04-24T09:43:56;99608.28;;;21.00;27.08
71697;BME280;68167;59.120;37.898;2023-04-24T09:46:29;99559.13;;;20.77;27.38
71697;BME280;68167;59.120;37.898;2023-04-24T09:48:57;99599.03;;;21.01;27.05
71697;BME280;68167;59.120;37.898;2023-04-24T09:51:35;99624.72;;;21.16;26.53
71697;BME280;68167;59.120;37.898;2023-04-24T09:54:17;99612.06;;;21.28;26.53
71697;BME280;68167;59.120;37.898;2023-04-24T09:56:49;99550.53;;;20.96;26.34
71697;BME280;68167;59.120;37.898;2023-04-24T09:59:18;99586.03;;;21.15;26.16
71697;BME280;68167;59.120;37.898;2023-04-24T10:01:46;99604.47;;;21.01;25.57
71697;BME280;68167;59.120;37.898;2023-04-24T10:04:22;99581.03;;;20.84;25.89
71697;BME280;68167;59.120;37.898;2023-04-24T10:06:52;99591.00;;;21.13;25.75
71697;BME280;68167;59.120;37.898;2023-04-24T10:09:20;99562.09;;;21.26;25.42
71697;BME280;68167;59.120;37.898;2023-04-24T10:11:48;99537.97;;;21.45;25.33
71697;BME280;68167;59.120;37.898;2023-04-24T10:14:17;99592.19;;;22.15;25.18
71697;BME280;68167;59.120;37.898;2023-04-24T10:16:45;99593.66;;;22.37;24.78
71697;BME280;68167;59.120;37.898;2023-04-24T10:19:15;99607.69;;;22.39;24.19
71697;BME280;68167;59.120;37.898;2023-04-24T10:21:43;99552.00;;;22.05;24.15
71697;BME280;68167;59.120;37.898;2023-04-24T10:24:14;99596.03;;;22.38;24.35
71697;BME280;68167;59.120;37.898;2023-04-24T10:26:43;99589.81;;;22.50;24.29
71697;BME280;68167;59.120;37.898;2023-04-24T10:29:13;99549.81;;;22.22;23.80
71697;BME280;68167;59.120;37.898;2023-04-24T10:31:41;99600.66;;;22.50;23.77
71697;BME280;68167;59.120;37.898;2023-04-24T10:34:09;99581.13;;;22.44;23.66
71697;BME280;68167;59.120;37.898;2023-04-24T10:36:48;99555.34;;;22.26;23.41
71697;BME280;68167;59.120;37.898;2023-04-24T10:39:17;99541.22;;;22.20;23.09
71697;BME280;68167;59.120;37.898;2023-04-24T10:41:45;99552.19;;;22.24;23.25
71697;BME280;68167;59.120;37.898;2023-04-24T10:44:14;99536.38;;;22.26;23.24
71697;BME280;68167;59.120;37.898;2023-04-24T10:46:46;99564.47;;;22.70;23.44
71697;BME280;68167;59.120;37.898;2023-04-24T10:49:15;99572.66;;;22.98;23.35
71697;BME280;68167;59.120;37.898;2023-04-24T10:54:49;99570.66;;;23.23;23.95
71697;BME280;68167;59.120;37.898;2023-04-24T11:00:09;99560.97;;;23.38;22.37
71697;BME280;68167;59.120;37.898;2023-04-24T11:02:39;99545.13;;;23.55;22.75
71697;BME280;68167;59.120;37.898;2023-04-24T11:05:09;99543.41;;;23.63;22.44
71697;BME280;68167;59.120;37.898;2023-04-24T11:08:11;99565.59;;;23.81;22.04
71697;BME280;68167;59.120;37.898;2023-04-24T11:11:04;99517.97;;;23.55;21.57
71697;BME280;68167;59.120;37.898;2023-04-24T11:19:04;99560.31;;;24.19;21.02
71697;BME280;68167;59.120;37.898;2023-04-24T11:21:46;99505.50;;;23.86;21.00
71697;BME280;68167;59.120;37.898;2023-04-24T11:24:39;99545.13;;;24.18;21.58
71697;BME280;68167;59.120;37.898;2023-04-24T11:27:18;99509.22;;;24.13;20.80
71697;BME280;68167;59.120;37.898;2023-04-24T11:29:51;99542.66;;;24.45;21.16
71697;BME280;68167;59.120;37.898;2023-04-24T11:32:29;99556.22;;;24.80;20.79
71697;BME280;68167;59.120;37.898;2023-04-24T11:34:58;99510.00;;;24.64;20.56
71697;BME280;68167;59.120;37.898;2023-04-24T11:37:39;99550.13;;;24.86;20.01
71697;BME280;68167;59.120;37.898;2023-04-24T11:40:08;99554.13;;;24.73;19.80
71697;BME280;68167;59.120;37.898;2023-04-24T11:42:40;99540.09;;;24.71;20.06
71697;BME280;68167;59.120;37.898;2023-04-24T11:45:11;99537.50;;;24.78;19.93
71697;BME280;68167;59.120;37.898;2023-04-24T11:47:39;99548.41;;;24.78;20.06
71697;BME280;68167;59.120;37.898;2023-04-24T11:50:11;99546.56;;;24.63;19.70
71697;BME280;68167;59.120;37.898;2023-04-24T11:52:41;99535.06;;;24.54;19.88
71697;BME280;68167;59.120;37.898;2023-04-24T11:55:28;99539.66;;;24.50;20.46
71697;BME280;68167;59.120;37.898;2023-04-24T11:57:58;99454.81;;;24.13;19.74
71697;BME280;68167;59.120;37.898;2023-04-24T12:00:32;99497.72;;;24.35;20.04
71697;BME280;68167;59.120;37.898;2023-04-24T12:03:06;99491.41;;;24.31;19.91
71697;BME280;68167;59.120;37.898;2023-04-24T12:05:33;99525.53;;;24.44;19.81
71697;BME280;68167;59.120;37.898;2023-04-24T12:08:01;99489.41;;;24.28;19.61
71697;BME280;68167;59.120;37.898;2023-04-24T12:10:29;99483.69;;;24.33;19.66
71697;BME280;68167;59.120;37.898;2023-04-24T12:12:57;99529.19;;;24.71;20.11
71697;BME280;68167;59.120;37.898;2023-04-24T12:15:24;99495.69;;;24.67;19.46
71697;BME280;68167;59.120;37.898;2023-04-24T12:17:52;99478.13;;;24.45;19.77
71697;BME280;68167;59.120;37.898;2023-04-24T12:20:31;99518.31;;;24.71;19.83
71697;BME280;68167;59.120;37.898;2023-04-24T12:23:01;99514.44;;;24.72;19.10
71697;BME280;68167;59.120;37.898;2023-04-24T12:25:32;99518.72;;;24.73;19.67
71697;BME280;68167;59.120;37.898;2023-04-24T12:30:39;99498.69;;;25.20;19.48
71697;BME280;68167;59.120;37.898;2023-04-24T12:33:06;99509.72;;;25.27;19.22
71697;BME280;68167;59.120;37.898;2023-04-24T12:35:33;99501.75;;;25.41;19.20
71697;BME280;68167;59.120;37.898;2023-04-24T12:38:10;99498.88;;;25.53;19.37
71697;BME280;68167;59.120;37.898;2023-04-24T12:40:42;99490.63;;;25.96;19.25
71697;BME280;68167;59.120;37.898;2023-04-24T12:43:17;99454.50;;;26.32;19.00
71697;BME280;68167;59.120;37.898;2023-04-24T12:45:44;99500.94;;;26.66;19.10
71697;BME280;68167;59.120;37.898;2023-04-24T12:48:11;99485.88;;;26.45;18.26
71697;BME280;68167;59.120;37.898;2023-04-24T12:50:40;99388.84;;;25.65;17.94
71697;BME280;68167;59.120;37.898;2023-04-24T12:53:07;99461.06;;;26.01;18.31
71697;BME280;68167;59.120;37.898;2023-04-24T12:55:35;99490.75;;;26.06;17.96
71697;BME280;68167;59.120;37.898;2023-04-24T12:58:01;99444.22;;;25.69;17.51
71697;BME280;68167;59.120;37.898;2023-04-24T13:00:29;99470.66;;;25.65;18.31
71697;BME280;68167;59.120;37.898;2023-04-24T13:02:56;99475.97;;;25.81;18.09
71697;BME280;68167;59.120;37.898;2023-04-24T13:05:23;99490.44;;;26.11;17.80
71697;BME280;68167;59.120;37.898;2023-04-24T13:07:49;99464.50;;;26.24;17.43
71697;BME280;68167;59.120;37.898;2023-04-24T13:10:16;99481.72;;;26.55;17.84
71697;BME280;68167;59.120;37.898;2023-04-24T13:12:43;99475.09;;;26.56;17.21
71697;BME280;68167;59.120;37.898;2023-04-24T13:15:12;99474.91;;;26.15;17.62